sensor_id;sensor_type;location;lat;lon;timestamp;pressure;altitude;pressure_sealevel;temperature;humidity
36828;BME280;22766;48.042;11.192;2023-04-19T00:01:28;95397.97;;;7.01;100.00
36828;BME280;22766;48.042;11.192;2023-04-19T00:03:54;95406.06;;;6.97;100.00
36828;BME280;22766;48.042;11.192;2023-04-19T00:06:22;95395.44;;;6.90;100.00
36828;BME280;22766;48.042;11.192;2023-04-19T00:08:50;95395.69;;;6.87;100.00
36828;BME280;22766;48.042;11.192;2023-04-19T00:11:17;95394.06;;;6.86;100.00
36828;BME280;22766;48.042;11.192;2023-04-19T00:13:43;95394.78;;;6.77;100.00
36828;BME280;22766;48.042;11.192;2023-04-19T00:16:10;95389.66;;;6.66;100.00
36828;BME280;22766;48.042;11.192;2023-04-19T00:18:37;95388.28;;;6.62;100.00
36828;BME280;22766;48.042;11.192;2023-04-19T00:21:04;95391.75;;;6.61;100.00
36828;BME280;22766;48.042;11.192;2023-04-19T00:23:31;95394.44;;;6.59;100.00
36828;BME280;22766;48.042;11.192;2023-04-19T00:25:58;95388.53;;;6.59;100.00
36828;BME280;22766;48.042;11.192;2023-04-19T00:28:24;95387.94;;;6.67;100.00
36828;BME280;22766;48.042;11.192;2023-04-19T00:30:51;95386.41;;;6.64;100.00
36828;BME280;22766;48.042;11.192;2023-04-19T00:33:18;95383.38;;;6.70;100.00
36828;BME280;22766;48.042;11.192;2023-04-19T00:35:47;95389.06;;;6.74;100.00
36828;BME280;22766;48.042;11.192;2023-04-19T00:38:14;95379.97;;;6.70;100.00
36828;BME280;22766;48.042;11.192;2023-04-19T00:40:43;95383.13;;;6.73;100.00
36828;BME280;22766;48.042;11.192;2023-04-19T00:43:10;95382.28;;;6.73;100.00
36828;BME280;22766;48.042;11.192;2023-04-19T00:45:36;95386.63;;;6.72;100.00
36828;BME280;22766;48.042;11.192;2023-04-19T00:48:03;95376.94;;;6.76;100.00
36828;BME280;22766;48.042;11.192;2023-04-19T00:50:30;95373.78;;;6.83;100.00
36828;BME280;22766;48.042;11.192;2023-04-19T00:52:57;95373.06;;;6.81;100.00
36828;BME280;22766;48.042;11.192;2023-04-19T00:55:25;95382.88;;;6.87;100.00
36828;BME280;22766;48.042;11.192;2023-04-19T00:57:52;95379.22;;;6.90;100.00
36828;BME280;22766;48.042;11.192;2023-04-19T01:00:19;95378.66;;;6.86;100.00
36828;BME280;22766;48.042;11.192;2023-04-19T01:02:46;95376.78;;;6.88;100.00
36828;BME280;22766;48.042;11.192;2023-04-19T01:05:13;95375.28;;;6.86;100.00
36828;BME280;22766;48.042;11.192;2023-04-19T01:07:41;95373.53;;;6.86;100.00
36828;BME280;22766;48.042;11.192;2023-04-19T01:10:09;95370.25;;;6.84;100.00
36828;BME280;22766;48.042;11.192;2023-04-19T01:12:36;95377.25;;;6.82;100.00
36828;BME280;22766;48.042;11.192;2023-04-19T01:15:03;95372.50;;;6.78;100.00
36828;BME280;22766;48.042;11.192;2023-04-19T01:17:31;95369.94;;;6.78;100.00
36828;BME280;22766;48.042;11.192;2023-04-19T01:20:03;95364.69;;;6.79;100.00
36828;BME280;22766;48.042;11.192;2023-04-19T01:22:34;95369.00;;;6.79;100.00
36828;BME280;22766;48.042;11.192;2023-04-19T01:25:03;95362.00;;;6.81;100.00
36828;BME280;22766;48.042;11.192;2023-04-19T01:27:30;95360.38;;;6.80;100.00
36828;BME280;22766;48.042;11.192;2023-04-19T01:29:57;95356.63;;;6.84;100.00
36828;BME280;22766;48.042;11.192;2023-04-19T01:32:25;95352.56;;;6.81;100.00
36828;BME280;22766;48.042;11.192;2023-04-19T01:34:54;95354.75;;;6.75;100.00
36828;BME280;22766;48.042;11.192;2023-04-19T01:37:21;95351.16;;;6.77;100.00
36828;BME280;22766;48.042;11.192;2023-04-19T01:39:47;95351.28;;;6.76;100.00
36828;BME280;22766;48.042;11.192;2023-04-19T01:42:14;95355.03;;;6.72;100.00
36828;BME280;22766;48.042;11.192;2023-04-19T01:44:41;95349.66;;;6.63;100.00
36828;BME280;22766;48.042;11.192;2023-04-19T01:47:07;95345.00;;;6.69;100.00
36828;BME280;22766;48.042;11.192;2023-04-19T01:49:34;95345.00;;;6.69;100.00
36828;BME280;22766;48.042;11.192;2023-04-19T01:52:01;95332.06;;;6.70;100.00
36828;BME280;22766;48.042;11.192;2023-04-19T01:54:28;95339.41;;;6.63;100.00
36828;BME280;22766;48.042;11.192;2023-04-19T01:56:55;95332.28;;;6.67;100.00
36828;BME280;22766;48.042;11.192;2023-04-19T01:59:22;95337.75;;;6.74;100.00
36828;BME280;22766;48.042;11.192;2023-04-19T02:01:49;95334.94;;;6.77;100.00
36828;BME280;22766;48.042;11.192;2023-04-19T02:04:19;95332.63;;;6.74;100.00
36828;BME280;22766;48.042;11.192;2023-04-19T02:06:46;95335.53;;;6.69;100.00
36828;BME280;22766;48.042;11.192;2023-04-19T02:09:13;95328.66;;;6.70;100.00
36828;BME280;22766;48.042;11.192;2023-04-19T02:11:41;95319.22;;;6.70;100.00
36828;BME280;22766;48.042;11.192;2023-04-19T02:14:08;95319.53;;;6.77;100.00
36828;BME280;22766;48.042;11.192;2023-04-19T02:16:34;95328.53;;;6.71;100.00
36828;BME280;22766;48.042;11.192;2023-04-19T02:19:02;95321.09;;;6.68;100.00
36828;BME280;22766;48.042;11.192;2023-04-19T02:21:31;95311.53;;;6.70;100.00
36828;BME280;22766;48.042;11.192;2023-04-19T02:23:58;95312.13;;;6.63;100.00
36828;BME280;22766;48.042;11.192;2023-04-19T02:26:24;95307.59;;;6.55;100.00
36828;BME280;22766;48.042;11.192;2023-04-19T02:28:51;95308.31;;;6.57;100.00
36828;BME280;22766;48.042;11.192;2023-04-19T02:31:18;95305.84;;;6.55;100.00
36828;BME280;22766;48.042;11.192;2023-04-19T02:33:45;95301.09;;;6.51;100.00
36828;BME280;22766;48.042;11.192;2023-04-19T02:36:12;95303.53;;;6.52;100.00
36828;BME280;22766;48.042;11.192;2023-04-19T02:38:39;95300.13;;;6.52;100.00
36828;BME280;22766;48.042;11.192;2023-04-19T02:41:06;95297.78;;;6.60;100.00
36828;BME280;22766;48.042;11.192;2023-04-19T02:43:32;95294.66;;;6.56;100.00
36828;BME280;22766;48.042;11.192;2023-04-19T02:46:00;95298.25;;;6.54;100.00
36828;BME280;22766;48.042;11.192;2023-04-19T02:48:27;95295.13;;;6.50;100.00
36828;BME280;22766;48.042;11.192;2023-04-19T02:50:54;95290.25;;;6.47;100.00
36828;BME280;22766;48.042;11.192;2023-04-19T02:53:21;95293.16;;;6.43;100.00
36828;BME280;22766;48.042;11.192;2023-04-19T02:55:48;95287.91;;;6.44;100.00
36828;BME280;22766;48.042;11.192;2023-04-19T02:58:18;95285.34;;;6.44;100.00
36828;BME280;22766;48.042;11.192;2023-04-19T03:00:55;95285.22;;;6.46;100.00
36828;BME280;22766;48.042;11.192;2023-04-19T03:03:22;95278.34;;;6.46;100.00
36828;BME280;22766;48.042;11.192;2023-04-19T03:05:49;95279.19;;;6.47;100.00
36828;BME280;22766;48.042;11.192;2023-04-19T03:08:16;95276.47;;;6.48;100.00
36828;BME280;22766;48.042;11.192;2023-04-19T03:10:43;95278.81;;;6.51;100.00
36828;BME280;22766;48.042;11.192;2023-04-19T03:13:10;95281.97;;;6.55;100.00
36828;BME280;22766;48.042;11.192;2023-04-19T03:15:37;95276.09;;;6.64;100.00
36828;BME280;22766;48.042;11.192;2023-04-19T03:18:04;95274.84;;;6.58;100.00
36828;BME280;22766;48.042;11.192;2023-04-19T03:20:32;95272.03;;;6.50;100.00
36828;BME280;22766;48.042;11.192;2023-04-19T03:22:59;95267.19;;;6.47;100.00
36828;BME280;22766;48.042;11.192;2023-04-19T03:25:27;95270.63;;;6.57;100.00
36828;BME280;22766;48.042;11.192;2023-04-19T03:28:04;95267.13;;;6.58;100.00
36828;BME280;22766;48.042;11.192;2023-04-19T03:30:57;95266.00;;;6.51;100.00
36828;BME280;22766;48.042;11.192;2023-04-19T03:33:24;95265.75;;;6.54;100.00
36828;BME280;22766;48.042;11.192;2023-04-19T03:35:52;95259.91;;;6.52;100.00
36828;BME280;22766;48.042;11.192;2023-04-19T03:38:19;95259.69;;;6.44;100.00
36828;BME280;22766;48.042;11.192;2023-04-19T03:40:46;95252.47;;;6.49;100.00
36828;BME280;22766;48.042;11.192;2023-04-19T03:43:15;95253.53;;;6.47;100.00
36828;BME280;22766;48.042;11.192;2023-04-19T03:45:42;95248.06;;;6.40;100.00
36828;BME280;22766;48.042;11.192;2023-04-19T03:48:09;95251.53;;;6.50;100.00
36828;BME280;22766;48.042;11.192;2023-04-19T03:50:36;95250.31;;;6.66;100.00
36828;BME280;22766;48.042;11.192;2023-04-19T03:53:03;95245.53;;;6.61;100.00
36828;BME280;22766;48.042;11.192;2023-04-19T03:55:31;95240.91;;;6.55;100.00
36828;BME280;22766;48.042;11.192;2023-04-19T03:57:59;95247.09;;;6.52;100.00
36828;BME280;22766;48.042;11.192;2023-04-19T04:00:35;95248.28;;;6.48;100.00
36828;BME280;22766;48.042;11.192;2023-04-19T04:03:02;95243.97;;;6.49;100.00
36828;BME280;22766;48.042;11.192;2023-04-19T04:05:29;95245.13;;;6.45;100.00
36828;BME280;22766;48.042;11.192;2023-04-19T04:07:56;95243.28;;;6.47;100.00
36828;BME280;22766;48.042;11.192;2023-04-19T04:10:24;95242.22;;;6.38;100.00
36828;BME280;22766;48.042;11.192;2023-04-19T04:12:50;95247.63;;;6.35;100.00
36828;BME280;22766;48.042;11.192;2023-04-19T04:15:24;95248.41;;;6.47;100.00
36828;BME280;22766;48.042;11.192;2023-04-19T04:17:52;95254.00;;;6.41;100.00
36828;BME280;22766;48.042;11.192;2023-04-19T04:20:19;95247.81;;;6.43;100.00
36828;BME280;22766;48.042;11.192;2023-04-19T04:22:47;95250.75;;;6.39;100.00
36828;BME280;22766;48.042;11.192;2023-04-19T04:25:16;95249.81;;;6.40;100.00
36828;BME280;22766;48.042;11.192;2023-04-19T04:27:44;95250.75;;;6.39;100.00
36828;BME280;22766;48.042;11.192;2023-04-19T04:30:15;95260.88;;;6.40;100.00
36828;BME280;22766;48.042;11.192;2023-04-19T04:32:43;95253.88;;;6.42;100.00
36828;BME280;22766;48.042;11.192;2023-04-19T04:35:10;95261.44;;;6.44;100.00
36828;BME280;22766;48.042;11.192;2023-04-19T04:37:42;95255.41;;;6.45;100.00
36828;BME280;22766;48.042;11.192;2023-04-19T04:40:10;95262.13;;;6.46;100.00
36828;BME280;22766;48.042;11.192;2023-04-19T04:42:36;95255.97;;;6.48;100.00
36828;BME280;22766;48.042;11.192;2023-04-19T04:45:05;95255.47;;;6.54;100.00
36828;BME280;22766;48.042;11.192;2023-04-19T04:47:35;95247.91;;;6.53;100.00
36828;BME280;22766;48.042;11.192;2023-04-19T04:50:04;95255.75;;;6.51;100.00
36828;BME280;22766;48.042;11.192;2023-04-19T04:52:31;95259.91;;;6.52;100.00
36828;BME280;22766;48.042;11.192;2023-04-19T04:55:18;95247.66;;;6.56;100.00
36828;BME280;22766;48.042;11.192;2023-04-19T04:57:46;95253.47;;;6.58;100.00
36828;BME280;22766;48.042;11.192;2023-04-19T05:00:26;95254.06;;;6.61;100.00
36828;BME280;22766;48.042;11.192;2023-04-19T05:03:03;95251.19;;;6.55;100.00
36828;BME280;22766;48.042;11.192;2023-04-19T05:05:34;95252.19;;;6.63;100.00
36828;BME280;22766;48.042;11.192;2023-04-19T05:08:01;95256.63;;;6.61;100.00
36828;BME280;22766;48.042;11.192;2023-04-19T05:10:28;95251.25;;;6.65;100.00
36828;BME280;22766;48.042;11.192;2023-04-19T05:12:56;95254.13;;;6.71;100.00
36828;BME280;22766;48.042;11.192;2023-04-19T05:15:22;95254.41;;;6.68;100.00
36828;BME280;22766;48.042;11.192;2023-04-19T05:17:52;95247.19;;;6.62;100.00
36828;BME280;22766;48.042;11.192;2023-04-19T05:20:20;95250.19;;;6.67;100.00
36828;BME280;22766;48.042;11.192;2023-04-19T05:22:56;95255.66;;;6.74;100.00
36828;BME280;22766;48.042;11.192;2023-04-19T05:25:24;95254.00;;;6.73;100.00
36828;BME280;22766;48.042;11.192;2023-04-19T05:27:51;95250.09;;;6.69;100.00
36828;BME280;22766;48.042;11.192;2023-04-19T05:30:18;95251.34;;;6.74;100.00
36828;BME280;22766;48.042;11.192;2023-04-19T05:32:45;95251.53;;;6.82;100.00
36828;BME280;22766;48.042;11.192;2023-04-19T05:35:13;95250.94;;;6.79;100.00
36828;BME280;22766;48.042;11.192;2023-04-19T05:37:40;95249.22;;;6.79;100.00
36828;BME280;22766;48.042;11.192;2023-04-19T05:40:07;95255.97;;;6.80;100.00
36828;BME280;22766;48.042;11.192;2023-04-19T05:42:37;95248.72;;;6.85;100.00
36828;BME280;22766;48.042;11.192;2023-04-19T05:45:04;95254.59;;;6.76;100.00
36828;BME280;22766;48.042;11.192;2023-04-19T05:47:33;95244.22;;;6.78;100.00
36828;BME280;22766;48.042;11.192;2023-04-19T05:50:20;95242.34;;;6.80;100.00
36828;BME280;22766;48.042;11.192;2023-04-19T05:53:04;95243.38;;;6.77;100.00
36828;BME280;22766;48.042;11.192;2023-04-19T05:55:31;95246.03;;;6.87;100.00
36828;BME280;22766;48.042;11.192;2023-04-19T05:57:57;95249.91;;;6.81;100.00
36828;BME280;22766;48.042;11.192;2023-04-19T06:00:26;95244.50;;;6.84;100.00
36828;BME280;22766;48.042;11.192;2023-04-19T06:03:00;95250.66;;;6.93;100.00
36828;BME280;22766;48.042;11.192;2023-04-19T06:05:27;95252.16;;;6.95;100.00
36828;BME280;22766;48.042;11.192;2023-04-19T06:07:55;95254.63;;;6.97;100.00
36828;BME280;22766;48.042;11.192;2023-04-19T06:10:28;95244.34;;;6.97;100.00
36828;BME280;22766;48.042;11.192;2023-04-19T06:13:15;95249.59;;;6.95;100.00
36828;BME280;22766;48.042;11.192;2023-04-19T06:15:42;95249.91;;;7.02;100.00
36828;BME280;22766;48.042;11.192;2023-04-19T06:18:09;95252.47;;;7.02;100.00
36828;BME280;22766;48.042;11.192;2023-04-19T06:20:45;95252.91;;;7.07;100.00
36828;BME280;22766;48.042;11.192;2023-04-19T06:23:12;95248.25;;;7.12;100.00
36828;BME280;22766;48.042;11.192;2023-04-19T06:25:40;95250.41;;;7.16;100.00
36828;BME280;22766;48.042;11.192;2023-04-19T06:28:06;95248.66;;;7.17;100.00
36828;BME280;22766;48.042;11.192;2023-04-19T06:30:33;95254.16;;;7.12;100.00
36828;BME280;22766;48.042;11.192;2023-04-19T06:33:00;95256.13;;;7.20;100.00
36828;BME280;22766;48.042;11.192;2023-04-19T06:35:27;95247.16;;;7.14;100.00
36828;BME280;22766;48.042;11.192;2023-04-19T06:37:53;95247.75;;;7.18;100.00
36828;BME280;22766;48.042;11.192;2023-04-19T06:40:20;95245.91;;;7.09;100.00
36828;BME280;22766;48.042;11.192;2023-04-19T06:42:47;95252.81;;;7.08;100.00
36828;BME280;22766;48.042;11.192;2023-04-19T06:45:14;95246.16;;;7.06;100.00
36828;BME280;22766;48.042;11.192;2023-04-19T06:47:41;95256.31;;;7.07;100.00
36828;BME280;22766;48.042;11.192;2023-04-19T06:50:09;95256.31;;;7.07;100.00
36828;BME280;22766;48.042;11.192;2023-04-19T06:52:36;95248.88;;;7.04;100.00
36828;BME280;22766;48.042;11.192;2023-04-19T06:55:06;95247.22;;;7.03;100.00
36828;BME280;22766;48.042;11.192;2023-04-19T06:57:33;95248.16;;;7.02;100.00
36828;BME280;22766;48.042;11.192;2023-04-19T07:00:00;95244.78;;;7.02;100.00
36828;BME280;22766;48.042;11.192;2023-04-19T07:02:26;95255.47;;;7.07;100.00
36828;BME280;22766;48.042;11.192;2023-04-19T07:04:53;95251.72;;;7.11;100.00
36828;BME280;22766;48.042;11.192;2023-04-19T07:07:20;95250.69;;;7.13;100.00
36828;BME280;22766;48.042;11.192;2023-04-19T07:09:47;95249.03;;;7.12;100.00
36828;BME280;22766;48.042;11.192;2023-04-19T07:12:14;95244.22;;;7.19;100.00
36828;BME280;22766;48.042;11.192;2023-04-19T07:14:40;95240.19;;;7.26;100.00
36828;BME280;22766;48.042;11.192;2023-04-19T07:17:07;95241.44;;;7.31;100.00
36828;BME280;22766;48.042;11.192;2023-04-19T07:19:34;95241.22;;;7.34;100.00
36828;BME280;22766;48.042;11.192;2023-04-19T07:22:04;95239.19;;;7.38;100.00
36828;BME280;22766;48.042;11.192;2023-04-19T07:24:31;95237.25;;;7.51;100.00
36828;BME280;22766;48.042;11.192;2023-04-19T07:26:58;95240.91;;;7.58;100.00
36828;BME280;22766;48.042;11.192;2023-04-19T07:29:25;95243.25;;;7.61;100.00
36828;BME280;22766;48.042;11.192;2023-04-19T07:31:52;95236.22;;;7.63;100.00
36828;BME280;22766;48.042;11.192;2023-04-19T07:34:20;95235.94;;;7.66;100.00
36828;BME280;22766;48.042;11.192;2023-04-19T07:36:47;95242.59;;;7.69;100.00
36828;BME280;22766;48.042;11.192;2023-04-19T07:39:14;95240.84;;;7.69;100.00
36828;BME280;22766;48.042;11.192;2023-04-19T07:41:41;95238.38;;;7.68;100.00
36828;BME280;22766;48.042;11.192;2023-04-19T07:44:08;95238.31;;;7.79;100.00
36828;BME280;22766;48.042;11.192;2023-04-19T07:46:36;95236.94;;;7.75;100.00
36828;BME280;22766;48.042;11.192;2023-04-19T07:49:03;95234.88;;;7.69;100.00
36828;BME280;22766;48.042;11.192;2023-04-19T07:51:30;95238.31;;;7.79;100.00
36828;BME280;22766;48.042;11.192;2023-04-19T07:53:56;95228.72;;;7.81;100.00
36828;BME280;22766;48.042;11.192;2023-04-19T07:56:23;95231.44;;;7.89;100.00
36828;BME280;22766;48.042;11.192;2023-04-19T07:58:52;95230.53;;;7.99;100.00
36828;BME280;22766;48.042;11.192;2023-04-19T08:01:32;95238.00;;;8.12;100.00
36828;BME280;22766;48.042;11.192;2023-04-19T08:03:59;95231.00;;;8.23;100.00
36828;BME280;22766;48.042;11.192;2023-04-19T08:06:26;95229.81;;;8.27;100.00
36828;BME280;22766;48.042;11.192;2023-04-19T08:08:55;95224.84;;;8.35;100.00
36828;BME280;22766;48.042;11.192;2023-04-19T08:11:22;95225.25;;;8.40;100.00
36828;BME280;22766;48.042;11.192;2023-04-19T08:13:50;95219.13;;;8.41;100.00
36828;BME280;22766;48.042;11.192;2023-04-19T08:16:34;95230.69;;;8.47;100.00
36828;BME280;22766;48.042;11.192;2023-04-19T08:19:04;95224.97;;;8.43;100.00
36828;BME280;22766;48.042;11.192;2023-04-19T08:21:31;95220.25;;;8.48;100.00
36828;BME280;22766;48.042;11.192;2023-04-19T08:24:07;95227.69;;;8.52;100.00
36828;BME280;22766;48.042;11.192;2023-04-19T08:26:34;95222.00;;;8.58;100.00
36828;BME280;22766;48.042;11.192;2023-04-19T08:29:00;95216.47;;;8.72;100.00
36828;BME280;22766;48.042;11.192;2023-04-19T08:31:27;95217.69;;;8.77;100.00
36828;BME280;22766;48.042;11.192;2023-04-19T08:33:54;95215.78;;;8.89;100.00
36828;BME280;22766;48.042;11.192;2023-04-19T08:36:21;95208.16;;;9.06;100.00
36828;BME280;22766;48.042;11.192;2023-04-19T08:39:05;95203.53;;;9.19;100.00
36828;BME280;22766;48.042;11.192;2023-04-19T08:41:52;95209.66;;;9.18;100.00
36828;BME280;22766;48.042;11.192;2023-04-19T08:44:36;95208.28;;;9.14;100.00
36828;BME280;22766;48.042;11.192;2023-04-19T08:47:25;95206.09;;;9.19;100.00
36828;BME280;22766;48.042;11.192;2023-04-19T08:49:59;95204.66;;;9.07;100.00
36828;BME280;22766;48.042;11.192;2023-04-19T08:52:46;95201.56;;;8.85;100.00
36828;BME280;22766;48.042;11.192;2023-04-19T08:55:27;95201.72;;;8.83;100.00
36828;BME280;22766;48.042;11.192;2023-04-19T08:57:55;95201.56;;;8.94;100.00
36828;BME280;22766;48.042;11.192;2023-04-19T09:00:22;95197.09;;;8.96;100.00
36828;BME280;22766;48.042;11.192;2023-04-19T09:02:50;95197.09;;;8.96;100.00
36828;BME280;22766;48.042;11.192;2023-04-19T09:05:18;95193.00;;;9.03;100.00
36828;BME280;22766;48.042;11.192;2023-04-19T09:07:46;95195.69;;;9.21;100.00
36828;BME280;22766;48.042;11.192;2023-04-19T09:10:15;95200.38;;;9.35;100.00
36828;BME280;22766;48.042;11.192;2023-04-19T09:12:58;95195.91;;;9.37;100.00
36828;BME280;22766;48.042;11.192;2023-04-19T09:15:37;95186.41;;;9.37;100.00
36828;BME280;22766;48.042;11.192;2023-04-19T09:18:07;95189.44;;;9.60;100.00
36828;BME280;22766;48.042;11.192;2023-04-19T09:20:39;95177.66;;;9.58;100.00
36828;BME280;22766;48.042;11.192;2023-04-19T09:23:09;95186.84;;;9.70;100.00
36828;BME280;22766;48.042;11.192;2023-04-19T09:25:39;95182.56;;;9.78;100.00
36828;BME280;22766;48.042;11.192;2023-04-19T09:28:27;95183.25;;;9.80;100.00
36828;BME280;22766;48.042;11.192;2023-04-19T09:30:54;95181.75;;;9.87;100.00
36828;BME280;22766;48.042;11.192;2023-04-19T09:33:37;95169.63;;;9.88;100.00
36828;BME280;22766;48.042;11.192;2023-04-19T09:36:07;95170.19;;;9.91;100.00
36828;BME280;22766;48.042;11.192;2023-04-19T09:38:47;95170.47;;;9.88;100.00
36828;BME280;22766;48.042;11.192;2023-04-19T09:41:15;95166.84;;;9.81;100.00
36828;BME280;22766;48.042;11.192;2023-04-19T09:43:43;95169.59;;;9.70;100.00
36828;BME280;22766;48.042;11.192;2023-04-19T09:46:33;95161.47;;;9.65;100.00
36828;BME280;22766;48.042;11.192;2023-04-19T09:51:56;95167.94;;;9.52;100.00
36828;BME280;22766;48.042;11.192;2023-04-19T09:54:24;95157.06;;;9.48;100.00
36828;BME280;22766;48.042;11.192;2023-04-19T09:56:54;95156.13;;;9.49;100.00
36828;BME280;22766;48.042;11.192;2023-04-19T09:59:24;95151.47;;;9.62;100.00
36828;BME280;22766;48.042;11.192;2023-04-19T10:01:54;95151.56;;;9.33;100.00
36828;BME280;22766;48.042;11.192;2023-04-19T10:04:22;95146.81;;;9.29;100.00
36828;BME280;22766;48.042;11.192;2023-04-19T10:07:09;95147.91;;;9.36;100.00
36828;BME280;22766;48.042;11.192;2023-04-19T10:09:39;95139.13;;;9.19;100.00
36828;BME280;22766;48.042;11.192;2023-04-19T10:12:21;95141.94;;;9.35;100.00
36828;BME280;22766;48.042;11.192;2023-04-19T10:15:10;95133.34;;;9.44;100.00
36828;BME280;22766;48.042;11.192;2023-04-19T10:17:38;95138.38;;;9.09;100.00
36828;BME280;22766;48.042;11.192;2023-04-19T10:20:17;95138.69;;;9.33;100.00
36828;BME280;22766;48.042;11.192;2023-04-19T10:22:46;95137.03;;;9.42;100.00
36828;BME280;22766;48.042;11.192;2023-04-19T10:25:14;95130.66;;;9.36;100.00
36828;BME280;22766;48.042;11.192;2023-04-19T10:27:43;95130.06;;;9.52;100.00
36828;BME280;22766;48.042;11.192;2023-04-19T10:30:24;95128.88;;;9.74;100.00
36828;BME280;22766;48.042;11.192;2023-04-19T10:32:56;95127.22;;;9.55;100.00
36828;BME280;22766;48.042;11.192;2023-04-19T10:35:35;95121.00;;;9.75;100.00
36828;BME280;22766;48.042;11.192;2023-04-19T10:40:54;95124.03;;;9.88;100.00
36828;BME280;22766;48.042;11.192;2023-04-19T10:43:28;95113.88;;;9.60;100.00
36828;BME280;22766;48.042;11.192;2023-04-19T10:48:57;95113.84;;;9.42;100.00
36828;BME280;22766;48.042;11.192;2023-04-19T10:51:38;95104.13;;;9.54;100.00
36828;BME280;22766;48.042;11.192;2023-04-19T10:54:09;95105.75;;;10.26;100.00
36828;BME280;22766;48.042;11.192;2023-04-19T10:57:05;95102.97;;;10.20;100.00
36828;BME280;22766;48.042;11.192;2023-04-19T10:59:34;95096.28;;;10.53;100.00
36828;BME280;22766;48.042;11.192;2023-04-19T11:04:56;95085.28;;;11.19;100.00
36828;BME280;22766;48.042;11.192;2023-04-19T11:07:24;95084.59;;;11.43;100.00
36828;BME280;22766;48.042;11.192;2023-04-19T11:09:50;95081.41;;;10.90;100.00
36828;BME280;22766;48.042;11.192;2023-04-19T11:12:19;95082.09;;;11.25;100.00
36828;BME280;22766;48.042;11.192;2023-04-19T11:14:49;95072.78;;;11.41;100.00
36828;BME280;22766;48.042;11.192;2023-04-19T11:17:17;95068.97;;;12.02;100.00
36828;BME280;22766;48.042;11.192;2023-04-19T11:22:23;95064.16;;;12.23;100.00
36828;BME280;22766;48.042;11.192;2023-04-19T11:24:50;95059.78;;;12.16;100.00
36828;BME280;22766;48.042;11.192;2023-04-19T11:27:17;95056.53;;;11.98;100.00
36828;BME280;22766;48.042;11.192;2023-04-19T11:29:43;95058.47;;;12.12;100.00
36828;BME280;22766;48.042;11.192;2023-04-19T11:32:10;95051.09;;;11.67;100.00
36828;BME280;22766;48.042;11.192;2023-04-19T11:34:39;95048.44;;;11.51;100.00
36828;BME280;22766;48.042;11.192;2023-04-19T11:37:05;95038.28;;;11.16;100.00
36828;BME280;22766;48.042;11.192;2023-04-19T11:39:32;95046.06;;;11.24;100.00
36828;BME280;22766;48.042;11.192;2023-04-19T11:41:59;95041.94;;;11.05;100.00
36828;BME280;22766;48.042;11.192;2023-04-19T11:44:26;95043.47;;;10.90;100.00
36828;BME280;22766;48.042;11.192;2023-04-19T11:47:04;95045.09;;;10.91;100.00
36828;BME280;22766;48.042;11.192;2023-04-19T11:49:32;95037.44;;;10.56;100.00
36828;BME280;22766;48.042;11.192;2023-04-19T11:52:01;95040.84;;;10.39;100.00
36828;BME280;22766;48.042;11.192;2023-04-19T11:54:31;95031.50;;;10.38;100.00
36828;BME280;22766;48.042;11.192;2023-04-19T11:57:03;95030.13;;;10.26;100.00
36828;BME280;22766;48.042;11.192;2023-04-19T11:59:32;95031.44;;;10.30;100.00
36828;BME280;22766;48.042;11.192;2023-04-19T12:02:09;95033.81;;;10.23;100.00
36828;BME280;22766;48.042;11.192;2023-04-19T12:04:38;95031.00;;;10.17;100.00
36828;BME280;22766;48.042;11.192;2023-04-19T12:07:05;95027.75;;;9.97;100.00
36828;BME280;22766;48.042;11.192;2023-04-19T12:09:33;95023.97;;;9.92;100.00
36828;BME280;22766;48.042;11.192;2023-04-19T12:12:01;95012.56;;;9.94;100.00
36828;BME280;22766;48.042;11.192;2023-04-19T12:14:29;95022.25;;;10.10;100.00
36828;BME280;22766;48.042;11.192;2023-04-19T12:17:11;95018.47;;;10.04;100.00
36828;BME280;22766;48.042;11.192;2023-04-19T12:19:45;95012.59;;;10.12;100.00
36828;BME280;22766;48.042;11.192;2023-04-19T12:22:13;95009.19;;;10.11;100.00
36828;BME280;22766;48.042;11.192;2023-04-19T12:24:40;95013.31;;;10.22;100.00
36828;BME280;22766;48.042;11.192;2023-04-19T12:27:07;95012.00;;;10.18;100.00
36828;BME280;22766;48.042;11.192;2023-04-19T12:29:37;95005.53;;;10.40;100.00
36828;BME280;22766;48.042;11.192;2023-04-19T12:32:04;95005.09;;;10.70;100.00
36828;BME280;22766;48.042;11.192;2023-04-19T12:34:31;95004.03;;;11.14;100.00
36828;BME280;22766;48.042;11.192;2023-04-19T12:36:58;94994.94;;;11.52;100.00
36828;BME280;22766;48.042;11.192;2023-04-19T12:39:25;94994.06;;;11.77;100.00
36828;BME280;22766;48.042;11.192;2023-04-19T12:41:51;95002.47;;;11.71;100.00
36828;BME280;22766;48.042;11.192;2023-04-19T12:44:18;94989.91;;;11.42;100.00
36828;BME280;22766;48.042;11.192;2023-04-19T12:46:45;94997.34;;;10.95;100.00
36828;BME280;22766;48.042;11.192;2023-04-19T12:49:11;94999.25;;;10.68;100.00
36828;BME280;22766;48.042;11.192;2023-04-19T12:51:38;94997.72;;;10.49;100.00
36828;BME280;22766;48.042;11.192;2023-04-19T12:54:05;94998.47;;;10.42;100.00
36828;BME280;22766;48.042;11.192;2023-04-19T12:56:33;94996.94;;;10.31;100.00
36828;BME280;22766;48.042;11.192;2023-04-19T12:59:00;94999.78;;;10.20;100.00
36828;BME280;22766;48.042;11.192;2023-04-19T13:01:27;95001.63;;;10.35;100.00
36828;BME280;22766;48.042;11.192;2023-04-19T13:03:53;95001.81;;;10.60;100.00
36828;BME280;22766;48.042;11.192;2023-04-19T13:06:24;94988.69;;;10.53;100.00
36828;BME280;22766;48.042;11.192;2023-04-19T13:08:51;94997.72;;;10.49;100.00
36828;BME280;22766;48.042;11.192;2023-04-19T13:11:20;94995.06;;;10.41;100.00
36828;BME280;22766;48.042;11.192;2023-04-19T13:13:49;94994.59;;;10.02;100.00